createdAt,value
2018-09-26T00:00:32.909Z,96.03
2018-09-26T00:01:33.075Z,95.98
2018-09-26T00:02:33.251Z,96.31
2018-09-26T00:03:33.434Z,96.26
2018-09-26T00:04:33.609Z,96.45
2018-09-26T00:05:33.768Z,96.22
2018-09-26T00:06:33.953Z,96.73
2018-09-26T00:07:34.121Z,96.31
2018-09-26T00:08:34.292Z,96.50
2018-09-26T00:09:34.455Z,96.36
2018-09-26T00:10:34.630Z,95.98
2018-09-26T00:11:34.817Z,96.08
2018-09-26T00:12:34.978Z,95.88
2018-09-26T00:13:35.153Z,96.36
2018-09-26T00:14:35.367Z,96.26
2018-09-26T00:15:35.506Z,96.26
2018-09-26T00:16:35.659Z,96.45
2018-09-26T00:17:35.833Z,96.45
2018-09-26T00:18:35.994Z,96.26
2018-09-26T00:19:36.175Z,95.98
2018-09-26T00:20:36.347Z,96.26
2018-09-26T00:21:36.515Z,96.36
2018-09-26T00:22:36.690Z,96.36
2018-09-26T00:23:36.853Z,96.64
2018-09-26T00:24:37.037Z,96.64
2018-09-26T00:25:37.202Z,96.92
2018-09-26T00:26:37.373Z,96.92
2018-09-26T00:27:37.543Z,97.69
2018-09-26T00:28:37.726Z,97.07
2018-09-26T00:29:37.892Z,97.54
2018-09-26T00:30:38.065Z,97.92
2018-09-26T00:31:38.241Z,97.59
2018-09-26T00:32:38.418Z,97.35
2018-09-26T00:33:38.582Z,97.59
2018-09-26T00:34:38.755Z,97.45
2018-09-26T00:35:38.931Z,97.40
2018-09-26T00:36:39.101Z,97.40
2018-09-26T00:37:39.298Z,97.59
2018-09-26T00:38:39.450Z,97.31
2018-09-26T00:39:39.623Z,97.59
2018-09-26T00:40:39.797Z,97.50
2018-09-26T00:41:39.969Z,97.12
2018-09-26T00:42:40.147Z,96.73
2018-09-26T00:43:40.310Z,96.73
2018-09-26T00:44:40.487Z,96.83
2018-09-26T00:45:40.660Z,96.73
2018-09-26T00:46:40.871Z,97.59
2018-09-26T00:47:41.007Z,97.40
2018-09-26T00:48:41.180Z,96.83
2018-09-26T00:49:41.354Z,96.78
2018-09-26T00:50:41.530Z,97.26
2018-09-26T00:51:41.699Z,97.26
2018-09-26T00:52:41.875Z,97.26
2018-09-26T00:53:42.047Z,97.26
2018-09-26T00:54:42.219Z,97.54
2018-09-26T00:55:42.383Z,97.35
2018-09-26T00:56:42.553Z,97.54
2018-09-26T00:58:42.901Z,97.54
2018-09-26T00:59:43.095Z,97.26
2018-09-26T01:00:43.237Z,97.54
2018-09-26T01:02:43.572Z,97.54
2018-09-26T01:03:43.746Z,97.35
2018-09-26T01:04:43.913Z,97.83
2018-09-26T01:05:44.088Z,97.54
2018-09-26T01:06:44.262Z,97.64
2018-09-26T01:07:44.434Z,98.11
2018-09-26T01:08:44.612Z,97.73
2018-09-26T01:09:44.785Z,97.35
2018-09-26T01:10:44.951Z,97.54
2018-09-26T01:11:45.126Z,97.64
2018-09-26T01:12:45.304Z,97.35
2018-09-26T01:13:45.474Z,97.45
2018-09-26T01:14:45.643Z,97.78
2018-09-26T01:15:45.815Z,97.64
2018-09-26T01:16:45.990Z,97.26
2018-09-26T01:17:46.161Z,97.07
2018-09-26T01:18:46.332Z,97.54
2018-09-26T01:19:46.506Z,97.02
2018-09-26T01:20:46.680Z,97.69
2018-09-26T01:21:46.849Z,97.40
2018-09-26T01:22:47.028Z,96.92
2018-09-26T01:23:47.190Z,97.12
2018-09-26T01:24:47.362Z,96.92
2018-09-26T01:25:47.556Z,96.45
2018-09-26T01:26:47.705Z,96.92
2018-09-26T01:27:47.881Z,96.73
2018-09-26T01:28:48.057Z,97.59
2018-09-26T01:29:48.221Z,97.50
2018-09-26T01:30:48.399Z,97.21
2018-09-26T01:31:48.569Z,96.36
2018-09-26T01:32:48.742Z,96.64
2018-09-26T01:33:48.903Z,96.08
2018-09-26T01:34:49.079Z,96.03
2018-09-26T01:35:49.244Z,95.65
2018-09-26T01:36:49.413Z,96.22
2018-09-26T01:37:49.590Z,96.03
2018-09-26T01:38:49.762Z,96.59
2018-09-26T01:39:49.932Z,96.69
2018-09-26T01:40:50.102Z,96.78
2018-09-26T01:41:50.279Z,97.07
2018-09-26T01:42:50.448Z,96.50
2018-09-26T01:43:50.620Z,96.78
2018-09-26T01:44:50.796Z,96.78
2018-09-26T01:45:50.976Z,96.97
2018-09-26T01:46:51.139Z,97.64
2018-09-26T01:47:51.314Z,98.49
2018-09-26T01:48:51.503Z,99.72
2018-09-26T01:49:51.656Z,99.99
2018-09-26T01:50:51.833Z,99.99
2018-09-26T01:51:52.004Z,99.99
2018-09-26T01:52:52.177Z,99.99
2018-09-26T01:53:52.352Z,99.99
2018-09-26T01:54:52.513Z,99.99
2018-09-26T01:55:52.685Z,99.99
2018-09-26T01:56:53.642Z,99.99
2018-09-26T01:57:53.086Z,99.99
2018-09-26T01:58:53.257Z,99.99
2018-09-26T01:59:53.432Z,99.99
2018-09-26T02:00:53.613Z,99.99
2018-09-26T02:01:53.771Z,99.99
2018-09-26T02:02:53.947Z,99.99
2018-09-26T02:03:54.118Z,99.99
2018-09-26T02:04:54.303Z,99.99
2018-09-26T02:05:54.462Z,99.99
2018-09-26T02:06:54.633Z,99.99
2018-09-26T02:07:54.807Z,99.99
2018-09-26T02:08:54.978Z,99.99
2018-09-26T02:09:55.154Z,99.99
2018-09-26T02:10:55.331Z,99.99
2018-09-26T02:11:55.503Z,99.99
2018-09-26T02:12:55.689Z,99.99
2018-09-26T02:13:55.851Z,99.99
2018-09-26T02:14:56.010Z,99.99
2018-09-26T02:15:56.185Z,99.99
2018-09-26T02:16:56.355Z,99.99
2018-09-26T02:17:56.533Z,99.99
2018-09-26T02:18:56.706Z,99.99
2018-09-26T02:19:56.879Z,99.99
2018-09-26T02:20:57.056Z,99.99
2018-09-26T02:21:57.226Z,99.99
2018-09-26T02:22:57.397Z,99.99
2018-09-26T02:23:57.573Z,99.99
2018-09-26T02:24:57.743Z,99.99
2018-09-26T02:25:57.917Z,99.99
2018-09-26T02:26:58.091Z,99.99
2018-09-26T02:27:58.248Z,99.99
2018-09-26T02:28:58.428Z,99.99
2018-09-26T02:29:58.595Z,99.99
2018-09-26T02:30:58.770Z,99.99
2018-09-26T02:31:58.943Z,99.99
2018-09-26T02:32:59.106Z,99.99
2018-09-26T02:33:59.281Z,99.99
2018-09-26T02:34:59.452Z,99.99
2018-09-26T02:35:59.623Z,99.99
2018-09-26T02:36:59.815Z,99.99
2018-09-26T02:37:59.987Z,99.99
2018-09-26T02:39:00.154Z,99.99
2018-09-26T02:40:00.328Z,99.99
2018-09-26T02:41:00.502Z,99.99
2018-09-26T02:42:00.672Z,99.99
2018-09-26T02:43:00.846Z,99.99
2018-09-26T02:44:01.020Z,99.99
2018-09-26T02:45:01.187Z,99.99
2018-09-26T02:46:01.357Z,99.99
2018-09-26T02:47:01.530Z,99.99
2018-09-26T02:48:01.728Z,99.99
2018-09-26T02:49:01.871Z,99.99
2018-09-26T02:50:02.046Z,99.99
2018-09-26T02:51:02.208Z,99.99
2018-09-26T02:52:02.377Z,99.99
2018-09-26T02:53:02.547Z,99.99
2018-09-26T02:54:02.720Z,99.99
2018-09-26T02:55:02.892Z,99.99
2018-09-26T02:56:03.069Z,99.99
2018-09-26T02:57:03.252Z,99.99
2018-09-26T02:58:03.424Z,99.99
2018-09-26T02:59:03.600Z,99.99
2018-09-26T03:00:03.750Z,99.99
2018-09-26T03:01:03.946Z,99.99
2018-09-26T03:02:04.103Z,99.99
2018-09-26T03:03:04.263Z,99.99
2018-09-26T03:04:04.432Z,99.99
2018-09-26T03:05:04.601Z,99.99
2018-09-26T03:06:04.800Z,99.99
2018-09-26T03:07:04.963Z,99.99
2018-09-26T03:08:05.114Z,99.99
2018-09-26T03:09:05.292Z,99.99
2018-09-26T03:10:05.464Z,99.99
2018-09-26T03:11:05.635Z,99.99
2018-09-26T03:13:05.974Z,99.99
2018-09-26T03:14:06.148Z,99.99
2018-09-26T03:15:06.323Z,99.99
2018-09-26T03:16:06.493Z,99.99
2018-09-26T03:17:06.673Z,99.99
2018-09-26T03:18:06.832Z,99.99
2018-09-26T03:19:07.011Z,99.99
2018-09-26T03:20:07.170Z,99.99
2018-09-26T03:21:07.360Z,99.99
2018-09-26T03:22:07.524Z,99.99
2018-09-26T03:23:07.685Z,99.99
2018-09-26T03:24:07.857Z,99.99
2018-09-26T03:25:08.026Z,99.99
2018-09-26T03:26:08.196Z,99.99
2018-09-26T03:27:08.366Z,99.99
2018-09-26T03:28:08.539Z,99.99
2018-09-26T03:29:08.713Z,99.99
2018-09-26T03:30:08.902Z,99.99
2018-09-26T03:31:09.065Z,99.99
2018-09-26T03:32:09.224Z,99.99
2018-09-26T03:33:09.393Z,99.99
2018-09-26T03:34:09.567Z,99.99
2018-09-26T03:35:09.749Z,99.99
2018-09-26T03:36:09.924Z,99.99
2018-09-26T03:37:10.101Z,99.99
2018-09-26T03:38:10.269Z,99.99
2018-09-26T03:39:10.442Z,99.99
2018-09-26T03:40:10.614Z,99.99
2018-09-26T03:41:10.779Z,99.99
2018-09-26T03:42:10.952Z,99.99
2018-09-26T03:43:11.132Z,99.99
2018-09-26T03:44:11.303Z,99.99
2018-09-26T03:45:11.463Z,99.99
2018-09-26T03:46:11.633Z,99.99
2018-09-26T03:47:11.816Z,99.99
2018-09-26T03:48:11.981Z,99.99
2018-09-26T03:49:12.146Z,99.99
2018-09-26T03:50:12.315Z,99.99
2018-09-26T03:51:12.491Z,99.99
2018-09-26T03:52:12.667Z,99.99
2018-09-26T03:53:12.832Z,99.99
2018-09-26T03:54:13.035Z,99.99
2018-09-26T03:55:13.162Z,99.99
2018-09-26T03:56:13.330Z,99.99
2018-09-26T03:57:13.502Z,99.99
2018-09-26T03:58:13.676Z,99.99
2018-09-26T03:59:13.852Z,99.99
2018-09-26T04:00:14.020Z,99.99
2018-09-26T04:01:14.194Z,99.99
2018-09-26T04:02:14.371Z,99.99
2018-09-26T04:03:14.540Z,99.99
2018-09-26T04:04:14.708Z,99.99
2018-09-26T04:05:14.876Z,99.99
2018-09-26T04:06:15.070Z,99.99
2018-09-26T04:07:15.240Z,99.99
2018-09-26T04:08:15.421Z,99.99
2018-09-26T04:09:15.584Z,99.99
2018-09-26T04:10:15.761Z,99.99
2018-09-26T04:11:15.934Z,99.99
2018-09-26T04:12:16.104Z,99.99
2018-09-26T04:13:16.273Z,99.99
2018-09-26T04:14:16.452Z,99.99
2018-09-26T04:15:16.618Z,99.99
2018-09-26T04:16:16.797Z,99.99
2018-09-26T04:17:16.967Z,99.99
2018-09-26T04:18:17.140Z,99.99
2018-09-26T04:19:17.307Z,99.99
2018-09-26T04:20:17.497Z,99.99
2018-09-26T04:21:17.665Z,99.99
2018-09-26T04:22:17.842Z,99.99
2018-09-26T04:23:17.995Z,99.99
2018-09-26T04:24:18.176Z,99.99
2018-09-26T04:25:18.339Z,99.99
2018-09-26T04:26:18.632Z,99.99
2018-09-26T04:27:18.965Z,99.99
2018-09-26T04:28:18.855Z,99.99
2018-09-26T04:29:19.034Z,99.99
2018-09-26T04:30:19.264Z,99.99
2018-09-26T04:31:19.372Z,99.99
2018-09-26T04:32:19.575Z,99.99
2018-09-26T04:33:19.956Z,99.99
2018-09-26T04:34:19.897Z,99.99
2018-09-26T04:35:20.062Z,99.99
2018-09-26T04:36:20.231Z,99.99
2018-09-26T04:37:20.400Z,99.99
2018-09-26T04:38:20.573Z,99.99
2018-09-26T04:39:20.751Z,99.99
2018-09-26T04:40:20.913Z,99.99
2018-09-26T04:41:21.094Z,99.99
2018-09-26T04:42:21.257Z,99.99
2018-09-26T04:43:21.537Z,99.99
2018-09-26T04:44:21.603Z,99.99
2018-09-26T04:45:21.776Z,99.99
2018-09-26T04:46:21.947Z,99.99
2018-09-26T04:47:22.128Z,99.99
2018-09-26T04:48:22.297Z,99.99
2018-09-26T04:49:22.478Z,99.99
2018-09-26T04:50:22.641Z,99.99
2018-09-26T04:51:23.669Z,99.99
2018-09-26T04:52:22.978Z,99.99
2018-09-26T04:53:23.152Z,99.99
2018-09-26T04:54:23.322Z,99.99
2018-09-26T04:55:23.493Z,99.99
2018-09-26T04:56:23.654Z,99.99
2018-09-26T04:57:23.827Z,99.99
2018-09-26T04:58:24.000Z,99.99
2018-09-26T04:59:24.180Z,99.99
2018-09-26T05:00:24.347Z,99.99
2018-09-26T05:01:24.521Z,99.99
2018-09-26T05:02:24.694Z,99.99
2018-09-26T05:03:24.870Z,99.99
2018-09-26T05:04:25.039Z,99.99
2018-09-26T05:05:25.213Z,99.99
2018-09-26T05:06:25.383Z,99.99
2018-09-26T05:07:25.565Z,99.99
2018-09-26T05:08:25.769Z,99.99
2018-09-26T05:09:25.899Z,99.99
2018-09-26T05:10:26.074Z,99.99
2018-09-26T05:11:26.250Z,99.99
2018-09-26T05:12:26.423Z,99.99
2018-09-26T05:13:26.596Z,99.99
2018-09-26T05:14:26.769Z,99.99
2018-09-26T05:15:26.940Z,99.99
2018-09-26T05:16:27.112Z,99.99
2018-09-26T05:17:27.286Z,99.99
2018-09-26T05:18:27.459Z,99.99
2018-09-26T05:19:27.635Z,99.99
2018-09-26T05:20:27.808Z,99.99
2018-09-26T05:21:27.986Z,99.99
2018-09-26T05:22:28.150Z,99.99
2018-09-26T05:23:28.326Z,99.99
2018-09-26T05:24:28.503Z,99.99
2018-09-26T05:25:28.670Z,99.99
2018-09-26T05:26:28.843Z,99.99
2018-09-26T05:27:29.009Z,99.99
2018-09-26T05:28:29.188Z,99.99
2018-09-26T05:29:29.351Z,99.99
2018-09-26T05:30:29.616Z,99.99
2018-09-26T05:31:29.702Z,99.99
2018-09-26T05:32:29.872Z,99.99
2018-09-26T05:33:30.045Z,99.99
2018-09-26T05:34:30.218Z,99.99
2018-09-26T05:35:30.390Z,99.99
2018-09-26T05:36:30.564Z,99.99
2018-09-26T05:37:30.735Z,99.99
2018-09-26T05:38:30.910Z,99.99
2018-09-26T05:39:31.088Z,99.99
2018-09-26T05:40:31.261Z,99.99
2018-09-26T05:41:31.426Z,99.99
2018-09-26T05:42:31.601Z,99.99
2018-09-26T05:43:31.773Z,99.99
2018-09-26T05:44:31.946Z,99.99
2018-09-26T05:45:32.105Z,99.99
2018-09-26T05:46:32.271Z,99.99
2018-09-26T05:47:32.467Z,99.99
2018-09-26T05:48:32.625Z,99.99
2018-09-26T05:49:32.798Z,99.99
2018-09-26T05:50:32.977Z,99.99
2018-09-26T05:51:33.132Z,99.99
2018-09-26T05:52:33.323Z,99.99
2018-09-26T05:53:33.488Z,99.99
2018-09-26T05:54:33.648Z,99.99
2018-09-26T05:55:33.828Z,99.99
2018-09-26T05:56:34.001Z,99.99
2018-09-26T05:57:34.172Z,99.99
2018-09-26T05:58:34.347Z,99.99
2018-09-26T05:59:34.574Z,99.99
2018-09-26T06:00:34.686Z,99.99
2018-09-26T06:01:34.857Z,99.99
2018-09-26T06:02:35.034Z,99.99
2018-09-26T06:03:35.230Z,99.99
2018-09-26T06:04:35.372Z,99.99
2018-09-26T06:05:35.636Z,99.99
2018-09-26T06:06:35.725Z,99.99
2018-09-26T06:07:35.886Z,99.99
2018-09-26T06:08:36.068Z,99.99
2018-09-26T06:09:36.231Z,99.99
2018-09-26T06:10:36.402Z,99.99
2018-09-26T06:11:36.597Z,99.99
2018-09-26T06:12:36.740Z,99.99
2018-09-26T06:13:36.934Z,99.99
2018-09-26T06:15:37.266Z,99.99
2018-09-26T06:16:37.441Z,99.99
2018-09-26T06:17:37.606Z,99.99
2018-09-26T06:18:37.784Z,99.54
2018-09-26T06:19:37.974Z,99.54
2018-09-26T06:20:38.105Z,99.58
2018-09-26T06:21:38.285Z,99.99
2018-09-26T06:22:38.459Z,99.99
2018-09-26T06:23:38.644Z,99.99
2018-09-26T06:24:38.817Z,99.99
2018-09-26T06:25:38.969Z,99.99
2018-09-26T06:26:39.153Z,99.99
2018-09-26T06:27:39.321Z,99.63
2018-09-26T06:28:39.504Z,99.35
2018-09-26T06:29:39.681Z,98.59
2018-09-26T06:30:39.856Z,98.97
2018-09-26T06:31:40.038Z,98.02
2018-09-26T06:32:40.189Z,97.74
2018-09-26T06:33:40.358Z,97.92
2018-09-26T06:34:40.543Z,97.60
2018-09-26T06:35:40.725Z,96.74
2018-09-26T06:36:40.891Z,96.08
2018-09-26T06:37:41.075Z,94.84
2018-09-26T06:38:41.236Z,94.56
2018-09-26T06:39:41.402Z,94.74
2018-09-26T06:40:41.579Z,94.60
2018-09-26T06:41:41.757Z,94.08
2018-09-26T06:42:41.969Z,93.37
2018-09-26T06:43:42.091Z,93.08
2018-09-26T06:44:42.262Z,92.61
2018-09-26T06:45:42.437Z,92.32
2018-09-26T06:46:42.611Z,91.56
2018-09-26T06:47:42.780Z,91.75
2018-09-26T06:48:42.938Z,92.42
2018-09-26T06:49:43.120Z,91.38
2018-09-26T06:50:43.305Z,91.33
2018-09-26T06:51:43.474Z,90.28
2018-09-26T06:52:43.646Z,90.66
2018-09-26T06:53:43.811Z,90.19
2018-09-26T06:54:43.987Z,89.80
2018-09-26T06:55:44.164Z,89.23
2018-09-26T06:56:44.327Z,88.67
2018-09-26T06:57:44.504Z,88.13
2018-09-26T06:58:44.659Z,87.90
2018-09-26T06:59:44.833Z,87.95
2018-09-26T07:00:44.989Z,87.66
2018-09-26T07:01:45.155Z,87.09
2018-09-26T07:02:45.326Z,86.71
2018-09-26T07:03:45.496Z,86.33
2018-09-26T07:04:45.700Z,86.71
2018-09-26T07:05:45.828Z,86.52
2018-09-26T07:06:46.020Z,86.80
2018-09-26T07:07:46.146Z,86.43
2018-09-26T07:08:46.356Z,86.71
2018-09-26T07:09:46.483Z,86.33
2018-09-26T07:10:46.662Z,86.71
2018-09-26T07:11:46.829Z,86.33
2018-09-26T07:12:46.963Z,86.61
2018-09-26T07:13:47.123Z,86.71
2018-09-26T07:14:47.298Z,86.43
2018-09-26T07:15:47.456Z,86.52
2018-09-26T07:16:47.635Z,86.71
2018-09-26T07:17:47.825Z,86.24
2018-09-26T07:18:47.972Z,87.09
2018-09-26T07:19:48.193Z,86.90
2018-09-26T07:20:48.344Z,86.61
2018-09-26T07:21:48.513Z,86.57
2018-09-26T07:22:48.666Z,86.28
2018-09-26T07:23:48.872Z,85.33
2018-09-26T07:24:49.024Z,85.14
2018-09-26T07:25:49.182Z,85.52
2018-09-26T07:26:49.353Z,86.09
2018-09-26T07:27:49.519Z,85.24
2018-09-26T07:28:49.684Z,84.38
2018-09-26T07:29:49.849Z,84.47
2018-09-26T07:30:50.028Z,84.28
2018-09-26T07:31:50.207Z,83.90
2018-09-26T07:32:50.360Z,83.62
2018-09-26T07:33:50.520Z,84.56
2018-09-26T07:34:50.699Z,84.95
2018-09-26T07:35:50.886Z,84.09
2018-09-26T07:37:51.173Z,84.56
2018-09-26T07:38:51.342Z,83.71
2018-09-26T07:39:51.517Z,83.71
2018-09-26T07:40:51.740Z,83.04
2018-09-26T07:41:51.889Z,83.14
2018-09-26T07:42:52.708Z,82.61
2018-09-26T07:43:52.193Z,82.61
2018-09-26T07:44:52.339Z,82.80
2018-09-26T07:45:52.618Z,82.48
2018-09-26T07:46:52.663Z,82.51
2018-09-26T07:47:52.864Z,81.66
2018-09-26T07:48:53.039Z,82.14
2018-09-26T07:49:53.218Z,81.95
2018-09-26T07:50:53.388Z,81.09
2018-09-26T07:52:53.770Z,81.56
2018-09-26T07:53:53.896Z,81.32
2018-09-26T07:54:54.105Z,80.94
2018-09-26T07:55:54.252Z,80.71
2018-09-26T07:56:54.408Z,81.18
2018-09-26T07:57:54.557Z,81.95
2018-09-26T07:58:54.740Z,81.66
2018-09-26T07:59:54.977Z,81.95
2018-09-26T08:00:55.279Z,81.85
2018-09-26T08:01:55.263Z,82.04
2018-09-26T08:02:55.397Z,81.56
2018-09-26T08:03:55.528Z,80.90
2018-09-26T08:04:55.778Z,81.51
2018-09-26T08:05:55.923Z,81.13
2018-09-26T08:06:56.026Z,80.84
2018-09-26T08:07:56.197Z,79.89
2018-09-26T08:08:56.372Z,79.13
2018-09-26T08:09:56.559Z,78.65
2018-09-26T08:10:56.720Z,78.88
2018-09-26T08:11:56.896Z,78.31
2018-09-26T08:12:57.075Z,77.36
2018-09-26T08:13:57.246Z,77.17
2018-09-26T08:14:57.455Z,76.64
2018-09-26T08:15:57.612Z,75.68
2018-09-26T08:16:57.769Z,76.16
2018-09-26T08:17:57.941Z,74.73
2018-09-26T08:18:58.151Z,73.30
2018-09-26T08:19:58.279Z,72.86
2018-09-26T08:20:58.422Z,72.67
2018-09-26T08:21:58.611Z,72.28
2018-09-26T08:22:58.775Z,71.91
2018-09-26T08:23:58.983Z,70.76
2018-09-26T08:24:59.166Z,70.38
2018-09-26T08:25:59.309Z,69.46
2018-09-26T08:26:59.469Z,68.79
2018-09-26T08:27:59.653Z,68.22
2018-09-26T08:28:59.830Z,69.37
2018-09-26T08:30:00.156Z,69.17
2018-09-26T08:31:00.197Z,68.88
2018-09-26T08:32:00.321Z,69.27
2018-09-26T08:33:00.503Z,67.65
2018-09-26T08:34:00.701Z,68.03
2018-09-26T08:35:00.843Z,67.27
2018-09-26T08:36:01.020Z,67.36
2018-09-26T08:37:01.188Z,67.07
2018-09-26T08:38:01.348Z,67.27
2018-09-26T08:39:01.500Z,68.32
2018-09-26T08:40:01.688Z,67.46
2018-09-26T08:41:01.871Z,67.49
2018-09-26T08:42:02.023Z,67.30
2018-09-26T08:43:02.205Z,67.01
2018-09-26T08:44:02.436Z,67.11
2018-09-26T08:45:02.533Z,66.82
2018-09-26T08:46:02.706Z,67.49
2018-09-26T08:47:02.873Z,67.68
2018-09-26T08:48:03.047Z,67.30
2018-09-26T08:49:03.200Z,66.95
2018-09-26T08:50:03.391Z,67.05
2018-09-26T08:51:03.603Z,67.24
2018-09-26T08:52:03.728Z,67.33
2018-09-26T08:53:03.927Z,67.24
2018-09-26T08:54:04.132Z,67.05
2018-09-26T08:55:04.287Z,67.52
2018-09-26T08:56:04.441Z,68.10
2018-09-26T08:57:04.632Z,67.62
2018-09-26T08:58:04.859Z,67.36
2018-09-26T08:59:04.985Z,66.16
2018-09-26T09:00:05.154Z,66.22
2018-09-26T09:01:05.334Z,66.50
2018-09-26T09:02:05.523Z,66.85
2018-09-26T09:03:05.735Z,67.36
2018-09-26T09:04:05.915Z,66.22
2018-09-26T09:05:06.100Z,66.13
2018-09-26T09:06:06.414Z,66.50
2018-09-26T09:07:06.451Z,65.36
2018-09-26T09:08:06.630Z,64.62
2018-09-26T09:09:06.837Z,64.25
2018-09-26T09:10:07.063Z,63.29
2018-09-26T09:11:07.199Z,63.57
2018-09-26T09:12:07.441Z,62.71
2018-09-26T09:13:07.667Z,61.60
2018-09-26T09:14:07.755Z,61.22
2018-09-26T09:15:07.944Z,60.67
2018-09-26T09:16:08.031Z,60.77
2018-09-26T09:17:08.179Z,60.38
2018-09-26T09:18:08.361Z,59.40
2018-09-26T09:19:08.498Z,59.30
2018-09-26T09:20:08.715Z,59.49
2018-09-26T09:21:08.837Z,58.56
2018-09-26T09:22:09.615Z,57.61
2018-09-26T09:23:09.195Z,56.27
2018-09-26T09:24:09.344Z,56.17
2018-09-26T09:25:09.524Z,56.39
2018-09-26T09:26:09.742Z,56.10
2018-09-26T09:27:09.897Z,55.73
2018-09-26T09:28:10.014Z,55.82
2018-09-26T09:29:10.227Z,53.83
2018-09-26T09:30:10.352Z,53.93
2018-09-26T09:31:10.579Z,54.00
2018-09-26T09:32:10.803Z,54.03
2018-09-26T09:33:10.903Z,53.36
2018-09-26T09:34:11.074Z,52.91
2018-09-26T09:35:11.252Z,52.71
2018-09-26T09:36:11.424Z,51.95
2018-09-26T09:37:11.583Z,51.95
2018-09-26T09:38:11.787Z,52.87
2018-09-26T09:39:11.936Z,52.87
2018-09-26T09:40:12.108Z,52.33
2018-09-26T09:41:12.309Z,51.65
2018-09-26T09:42:13.239Z,51.95
2018-09-26T09:43:12.720Z,52.04
2018-09-26T09:44:12.910Z,51.95
2018-09-26T09:45:13.068Z,51.65
2018-09-26T09:46:13.230Z,51.85
2018-09-26T09:47:13.409Z,51.46
2018-09-26T09:48:13.587Z,51.10
2018-09-26T09:49:13.738Z,50.63
2018-09-26T09:50:13.968Z,49.69
2018-09-26T09:51:14.098Z,49.05
2018-09-26T09:52:14.258Z,48.30
2018-09-26T09:53:14.432Z,47.63
2018-09-26T09:54:14.634Z,46.96
2018-09-26T09:55:14.777Z,46.98
2018-09-26T09:56:15.060Z,45.85
2018-09-26T09:57:15.114Z,45.08
2018-09-26T09:58:15.297Z,45.28
2018-09-26T09:59:15.468Z,45.01
2018-09-26T10:00:15.646Z,44.05
2018-09-26T10:01:15.832Z,44.22
2018-09-26T10:02:16.096Z,43.95
2018-09-26T10:03:16.176Z,43.76
2018-09-26T10:04:16.361Z,44.24
2018-09-26T10:05:16.520Z,44.02
2018-09-26T10:06:16.701Z,42.87
2018-09-26T10:07:16.888Z,42.80
2018-09-26T10:08:17.113Z,42.14
2018-09-26T10:09:17.239Z,41.20
2018-09-26T10:10:17.397Z,39.93
2018-09-26T10:11:17.559Z,40.30
2018-09-26T10:12:17.738Z,40.97
2018-09-26T10:13:17.920Z,40.43
2018-09-26T10:14:18.175Z,40.61
2018-09-26T10:15:18.255Z,40.91
2018-09-26T10:16:18.437Z,40.16
2018-09-26T10:17:18.603Z,38.62
2018-09-26T10:18:18.792Z,38.41
2018-09-26T10:19:18.965Z,38.51
2018-09-26T10:20:19.254Z,38.60
2018-09-26T10:21:19.328Z,39.47
2018-09-26T10:22:19.580Z,38.22
2018-09-26T10:23:19.750Z,39.74
2018-09-26T10:24:19.928Z,39.11
2018-09-26T10:25:20.119Z,38.16
2018-09-26T10:26:20.418Z,37.39
2018-09-26T10:27:20.566Z,36.71
2018-09-26T10:28:20.701Z,36.61
2018-09-26T10:29:20.880Z,37.08
2018-09-26T10:30:21.044Z,37.77
2018-09-26T10:31:21.220Z,38.24
2018-09-26T10:32:21.507Z,38.39
2018-09-26T10:33:21.575Z,38.29
2018-09-26T10:34:21.743Z,39.33
2018-09-26T10:35:21.940Z,39.36
2018-09-26T10:36:22.119Z,39.64
2018-09-26T10:37:22.271Z,40.03
2018-09-26T10:38:22.553Z,39.54
2018-09-26T10:39:22.638Z,39.06
2018-09-26T10:40:22.865Z,38.31
2018-09-26T10:41:23.029Z,38.49
2018-09-26T10:42:23.225Z,39.18
2018-09-26T10:43:23.385Z,39.06
2018-09-26T10:44:23.651Z,39.43
2018-09-26T10:45:23.749Z,39.81
2018-09-26T10:46:23.924Z,39.16
2018-09-26T10:47:24.139Z,38.49
2018-09-26T10:48:24.256Z,38.59
2018-09-26T10:49:24.458Z,38.01
2018-09-26T10:50:24.728Z,38.66
2018-09-26T10:51:24.791Z,38.93
2018-09-26T10:52:24.979Z,39.04
2018-09-26T10:53:25.155Z,38.78
2018-09-26T10:54:25.305Z,38.37
2018-09-26T10:55:25.498Z,37.81
2018-09-26T10:56:25.839Z,37.35
2018-09-26T10:57:25.851Z,37.16
2018-09-26T10:58:26.032Z,37.52
2018-09-26T10:59:26.200Z,37.51
2018-09-26T11:00:26.379Z,37.97
2018-09-26T11:01:26.579Z,36.91
2018-09-26T11:02:26.794Z,36.35
2018-09-26T11:03:26.924Z,35.89
2018-09-26T11:04:27.104Z,35.02
2018-09-26T11:05:27.297Z,35.33
2018-09-26T11:06:27.452Z,34.96
2018-09-26T11:07:27.612Z,34.67
2018-09-26T11:08:27.798Z,34.09
2018-09-26T11:09:27.960Z,33.91
2018-09-26T11:10:28.183Z,33.51
2018-09-26T11:11:28.319Z,33.03
2018-09-26T11:13:28.687Z,34.16
2018-09-26T11:14:28.843Z,34.75
2018-09-26T11:15:29.014Z,34.74
2018-09-26T11:16:29.301Z,35.68
2018-09-26T11:17:29.345Z,36.15
2018-09-26T11:18:29.550Z,36.91
2018-09-26T11:19:29.749Z,37.01
2018-09-26T11:20:29.928Z,37.01
2018-09-26T11:21:30.125Z,37.20
2018-09-26T11:22:30.310Z,37.22
2018-09-26T11:23:30.479Z,37.01
2018-09-26T11:24:30.652Z,37.30
2018-09-26T11:25:30.829Z,37.30
2018-09-26T11:26:31.080Z,36.91
2018-09-26T11:27:31.152Z,37.59
2018-09-26T11:28:31.318Z,37.39
2018-09-26T11:29:31.513Z,38.07
2018-09-26T11:30:31.672Z,37.39
2018-09-26T11:31:31.856Z,37.30
2018-09-26T11:32:32.006Z,36.62
2018-09-26T11:33:32.446Z,37.01
2018-09-26T11:34:32.344Z,36.72
2018-09-26T11:35:32.533Z,36.91
2018-09-26T11:36:32.700Z,37.01
2018-09-26T11:37:32.888Z,37.18
2018-09-26T11:38:33.063Z,37.37
2018-09-26T11:40:33.448Z,38.24
2018-09-26T11:41:33.584Z,38.43
2018-09-26T11:42:33.756Z,38.51
2018-09-26T11:43:33.952Z,38.43
2018-09-26T11:44:34.196Z,38.43
2018-09-26T11:45:34.345Z,37.87
2018-09-26T11:46:34.533Z,38.16
2018-09-26T11:47:34.697Z,37.59
2018-09-26T11:48:34.877Z,37.68
2018-09-26T11:49:35.055Z,37.30
2018-09-26T11:50:35.252Z,37.02
2018-09-26T11:51:35.460Z,37.22
2018-09-26T11:52:35.617Z,36.54
2018-09-26T11:53:35.870Z,35.95
2018-09-26T11:54:36.038Z,36.43
2018-09-26T11:55:36.228Z,36.15
2018-09-26T11:56:36.405Z,36.05
2018-09-26T11:57:36.607Z,36.15
2018-09-26T11:58:36.785Z,36.24
2018-09-26T11:59:36.927Z,36.91
2018-09-26T12:00:37.105Z,36.15
2018-09-26T12:01:37.303Z,36.05
2018-09-26T12:02:37.537Z,35.95
2018-09-26T12:03:37.629Z,35.95
2018-09-26T12:04:37.825Z,36.70
2018-09-26T12:05:37.951Z,36.24
2018-09-26T12:06:38.121Z,36.24
2018-09-26T12:07:38.405Z,35.76
2018-09-26T12:08:38.462Z,35.85
2018-09-26T12:09:38.675Z,35.76
2018-09-26T12:10:38.854Z,35.66
2018-09-26T12:11:39.057Z,35.85
2018-09-26T12:12:39.232Z,36.15
2018-09-26T12:13:39.434Z,35.95
2018-09-26T12:14:39.589Z,35.57
2018-09-26T12:15:39.784Z,35.57
2018-09-26T12:16:39.941Z,35.76
2018-09-26T12:17:40.125Z,35.38
2018-09-26T12:18:40.284Z,35.47
2018-09-26T12:19:40.444Z,35.57
2018-09-26T12:20:40.615Z,34.80
2018-09-26T12:21:40.825Z,34.41
2018-09-26T12:22:41.006Z,34.99
2018-09-26T12:23:41.092Z,35.47
2018-09-26T12:24:41.341Z,35.47
2018-09-26T12:25:41.415Z,35.28
2018-09-26T12:26:41.562Z,35.38
2018-09-26T12:27:41.835Z,35.28
2018-09-26T12:28:41.949Z,35.85
2018-09-26T12:29:42.142Z,35.26
2018-09-26T12:30:42.293Z,35.36
2018-09-26T12:31:42.452Z,35.26
2018-09-26T12:32:42.620Z,35.83
2018-09-26T12:33:42.804Z,35.83
2018-09-26T12:34:43.000Z,35.74
2018-09-26T12:36:43.339Z,35.72
2018-09-26T12:37:43.522Z,35.82
2018-09-26T12:38:43.674Z,36.51
2018-09-26T12:39:43.864Z,36.03
2018-09-26T12:40:44.042Z,36.60
2018-09-26T12:41:44.173Z,36.51
2018-09-26T12:42:44.391Z,36.58
2018-09-26T12:43:44.554Z,36.41
2018-09-26T12:44:44.691Z,36.22
2018-09-26T12:45:44.876Z,36.32
2018-09-26T12:46:45.027Z,36.22
2018-09-26T12:47:45.189Z,36.60
2018-09-26T12:48:45.347Z,36.70
2018-09-26T12:49:45.521Z,36.90
2018-09-26T12:50:45.706Z,36.62
2018-09-26T12:51:45.852Z,37.10
2018-09-26T12:52:46.042Z,36.72
2018-09-26T12:53:46.255Z,36.43
2018-09-26T12:54:46.372Z,36.24
2018-09-26T12:55:46.554Z,36.32
2018-09-26T12:56:46.736Z,36.80
2018-09-26T12:57:46.915Z,36.80
2018-09-26T12:58:47.104Z,36.60
2018-09-26T12:59:47.287Z,36.78
2018-09-26T13:00:47.572Z,36.78
2018-09-26T13:01:47.651Z,36.80
2018-09-26T13:02:47.903Z,36.99
2018-09-26T13:03:48.036Z,36.60